sensor_id;sensor_type;location;lat;lon;timestamp;P1;durP1;ratioP1;P2;durP2;ratioP2
55220;SDS011;41089;51.448;6.604;2023-07-31T00:03:24;9.77;;;4.77;;
55220;SDS011;41089;51.448;6.604;2023-07-31T00:09:24;12.25;;;5.10;;
55220;SDS011;41089;51.448;6.604;2023-07-31T00:15:24;11.23;;;5.57;;
55220;SDS011;41089;51.448;6.604;2023-07-31T00:21:25;12.77;;;5.53;;
55220;SDS011;41089;51.448;6.604;2023-07-31T00:27:25;7.78;;;4.72;;
55220;SDS011;41089;51.448;6.604;2023-07-31T00:33:25;16.73;;;5.30;;
55220;SDS011;41089;51.448;6.604;2023-07-31T00:39:26;17.30;;;5.67;;
55220;SDS011;41089;51.448;6.604;2023-07-31T00:45:26;10.10;;;4.87;;
55220;SDS011;41089;51.448;6.604;2023-07-31T00:51:28;15.00;;;5.95;;
55220;SDS011;41089;51.448;6.604;2023-07-31T00:57:29;15.73;;;5.03;;
55220;SDS011;41089;51.448;6.604;2023-07-31T01:03:30;13.65;;;5.30;;
55220;SDS011;41089;51.448;6.604;2023-07-31T01:09:35;14.30;;;5.43;;
55220;SDS011;41089;51.448;6.604;2023-07-31T01:15:37;10.95;;;4.78;;
55220;SDS011;41089;51.448;6.604;2023-07-31T01:28:04;13.38;;;5.00;;
55220;SDS011;41089;51.448;6.604;2023-07-31T01:34:06;12.98;;;4.88;;
55220;SDS011;41089;51.448;6.604;2023-07-31T01:40:09;13.98;;;4.75;;
55220;SDS011;41089;51.448;6.604;2023-07-31T01:46:09;12.40;;;5.18;;
55220;SDS011;41089;51.448;6.604;2023-07-31T01:52:09;9.15;;;4.82;;
55220;SDS011;41089;51.448;6.604;2023-07-31T01:58:10;11.23;;;4.93;;
55220;SDS011;41089;51.448;6.604;2023-07-31T02:04:10;10.70;;;4.47;;
55220;SDS011;41089;51.448;6.604;2023-07-31T02:10:10;12.82;;;5.38;;
55220;SDS011;41089;51.448;6.604;2023-07-31T02:16:11;15.07;;;4.82;;
55220;SDS011;41089;51.448;6.604;2023-07-31T02:22:11;11.87;;;5.10;;
55220;SDS011;41089;51.448;6.604;2023-07-31T02:28:12;11.48;;;4.80;;
55220;SDS011;41089;51.448;6.604;2023-07-31T02:34:13;11.75;;;5.10;;
55220;SDS011;41089;51.448;6.604;2023-07-31T02:40:14;12.48;;;5.35;;
55220;SDS011;41089;51.448;6.604;2023-07-31T02:46:14;12.60;;;5.75;;
55220;SDS011;41089;51.448;6.604;2023-07-31T02:52:15;15.93;;;5.55;;
55220;SDS011;41089;51.448;6.604;2023-07-31T02:58:15;15.45;;;5.25;;
55220;SDS011;41089;51.448;6.604;2023-07-31T03:04:15;12.48;;;5.20;;
55220;SDS011;41089;51.448;6.604;2023-07-31T03:10:16;13.93;;;5.37;;
55220;SDS011;41089;51.448;6.604;2023-07-31T03:16:16;12.57;;;4.73;;
55220;SDS011;41089;51.448;6.604;2023-07-31T03:22:17;12.73;;;5.07;;
55220;SDS011;41089;51.448;6.604;2023-07-31T03:28:17;14.83;;;5.87;;
55220;SDS011;41089;51.448;6.604;2023-07-31T03:34:17;12.05;;;5.10;;
55220;SDS011;41089;51.448;6.604;2023-07-31T03:40:18;12.18;;;4.97;;
55220;SDS011;41089;51.448;6.604;2023-07-31T03:46:18;13.70;;;5.27;;
55220;SDS011;41089;51.448;6.604;2023-07-31T03:52:18;15.83;;;5.67;;
55220;SDS011;41089;51.448;6.604;2023-07-31T04:04:22;17.02;;;5.40;;
55220;SDS011;41089;51.448;6.604;2023-07-31T04:10:23;11.73;;;5.00;;
55220;SDS011;41089;51.448;6.604;2023-07-31T04:16:23;12.10;;;4.35;;
55220;SDS011;41089;51.448;6.604;2023-07-31T04:22:25;8.70;;;4.47;;
55220;SDS011;41089;51.448;6.604;2023-07-31T04:28:25;9.50;;;4.10;;
55220;SDS011;41089;51.448;6.604;2023-07-31T04:34:26;15.10;;;6.32;;
55220;SDS011;41089;51.448;6.604;2023-07-31T04:40:26;12.60;;;5.27;;
55220;SDS011;41089;51.448;6.604;2023-07-31T04:46:26;10.20;;;4.93;;
55220;SDS011;41089;51.448;6.604;2023-07-31T04:52:27;9.83;;;4.57;;
55220;SDS011;41089;51.448;6.604;2023-07-31T04:58:27;11.77;;;5.60;;
55220;SDS011;41089;51.448;6.604;2023-07-31T05:04:28;9.57;;;4.55;;
55220;SDS011;41089;51.448;6.604;2023-07-31T05:10:28;10.03;;;5.20;;
55220;SDS011;41089;51.448;6.604;2023-07-31T05:16:28;12.02;;;5.28;;
55220;SDS011;41089;51.448;6.604;2023-07-31T05:22:29;13.87;;;4.93;;
55220;SDS011;41089;51.448;6.604;2023-07-31T05:28:30;8.65;;;4.43;;
55220;SDS011;41089;51.448;6.604;2023-07-31T05:34:31;7.00;;;4.35;;
55220;SDS011;41089;51.448;6.604;2023-07-31T05:40:33;9.73;;;5.07;;
55220;SDS011;41089;51.448;6.604;2023-07-31T05:46:34;6.28;;;4.35;;
55220;SDS011;41089;51.448;6.604;2023-07-31T05:52:35;9.70;;;4.80;;
55220;SDS011;41089;51.448;6.604;2023-07-31T05:58:35;7.70;;;4.90;;
55220;SDS011;41089;51.448;6.604;2023-07-31T06:04:36;12.20;;;4.83;;
55220;SDS011;41089;51.448;6.604;2023-07-31T06:10:36;11.63;;;5.30;;
55220;SDS011;41089;51.448;6.604;2023-07-31T06:16:37;8.60;;;4.90;;
55220;SDS011;41089;51.448;6.604;2023-07-31T06:22:37;9.43;;;5.20;;
55220;SDS011;41089;51.448;6.604;2023-07-31T06:28:39;8.48;;;5.18;;
55220;SDS011;41089;51.448;6.604;2023-07-31T06:34:40;8.10;;;4.97;;
55220;SDS011;41089;51.448;6.604;2023-07-31T06:40:40;7.32;;;5.20;;
55220;SDS011;41089;51.448;6.604;2023-07-31T06:46:41;6.77;;;5.03;;
55220;SDS011;41089;51.448;6.604;2023-07-31T06:52:42;9.98;;;4.70;;
55220;SDS011;41089;51.448;6.604;2023-07-31T06:58:43;9.77;;;4.93;;
55220;SDS011;41089;51.448;6.604;2023-07-31T07:04:43;7.78;;;4.65;;
55220;SDS011;41089;51.448;6.604;2023-07-31T07:10:43;6.57;;;4.30;;
55220;SDS011;41089;51.448;6.604;2023-07-31T07:16:44;8.93;;;5.03;;
55220;SDS011;41089;51.448;6.604;2023-07-31T07:22:44;8.35;;;4.78;;
55220;SDS011;41089;51.448;6.604;2023-07-31T07:28:45;9.70;;;4.90;;
55220;SDS011;41089;51.448;6.604;2023-07-31T07:34:47;7.53;;;4.30;;
55220;SDS011;41089;51.448;6.604;2023-07-31T07:40:47;7.20;;;4.55;;
55220;SDS011;41089;51.448;6.604;2023-07-31T07:46:51;5.85;;;3.58;;
55220;SDS011;41089;51.448;6.604;2023-07-31T07:52:51;5.07;;;3.50;;
55220;SDS011;41089;51.448;6.604;2023-07-31T07:58:52;5.60;;;3.72;;
55220;SDS011;41089;51.448;6.604;2023-07-31T08:04:52;4.43;;;3.00;;
55220;SDS011;41089;51.448;6.604;2023-07-31T08:10:53;6.22;;;3.17;;
55220;SDS011;41089;51.448;6.604;2023-07-31T08:16:53;6.17;;;3.03;;
55220;SDS011;41089;51.448;6.604;2023-07-31T08:22:54;3.23;;;2.93;;
55220;SDS011;41089;51.448;6.604;2023-07-31T08:28:54;6.43;;;2.90;;
55220;SDS011;41089;51.448;6.604;2023-07-31T08:34:54;5.38;;;3.10;;
55220;SDS011;41089;51.448;6.604;2023-07-31T08:40:58;6.10;;;3.38;;
55220;SDS011;41089;51.448;6.604;2023-07-31T08:46:59;4.45;;;3.10;;
55220;SDS011;41089;51.448;6.604;2023-07-31T08:53:00;7.13;;;3.53;;
55220;SDS011;41089;51.448;6.604;2023-07-31T08:59:02;4.57;;;3.53;;
55220;SDS011;41089;51.448;6.604;2023-07-31T09:05:03;5.65;;;3.70;;
55220;SDS011;41089;51.448;6.604;2023-07-31T09:11:08;6.90;;;3.92;;
55220;SDS011;41089;51.448;6.604;2023-07-31T09:17:09;4.77;;;3.40;;
55220;SDS011;41089;51.448;6.604;2023-07-31T09:23:10;6.55;;;3.35;;
55220;SDS011;41089;51.448;6.604;2023-07-31T09:29:18;7.53;;;3.40;;
55220;SDS011;41089;51.448;6.604;2023-07-31T09:35:27;5.47;;;3.40;;
55220;SDS011;41089;51.448;6.604;2023-07-31T09:41:28;6.18;;;3.10;;
55220;SDS011;41089;51.448;6.604;2023-07-31T09:47:28;3.92;;;3.13;;
55220;SDS011;41089;51.448;6.604;2023-07-31T09:53:30;4.40;;;3.47;;
55220;SDS011;41089;51.448;6.604;2023-07-31T09:59:31;4.07;;;3.22;;
55220;SDS011;41089;51.448;6.604;2023-07-31T10:05:34;7.00;;;3.33;;
55220;SDS011;41089;51.448;6.604;2023-07-31T10:11:43;6.35;;;3.90;;
55220;SDS011;41089;51.448;6.604;2023-07-31T10:17:56;5.97;;;4.60;;
55220;SDS011;41089;51.448;6.604;2023-07-31T10:23:56;6.53;;;3.92;;
55220;SDS011;41089;51.448;6.604;2023-07-31T10:29:57;4.40;;;2.95;;
55220;SDS011;41089;51.448;6.604;2023-07-31T10:36:18;6.05;;;3.35;;
55220;SDS011;41089;51.448;6.604;2023-07-31T10:42:19;6.25;;;3.58;;
55220;SDS011;41089;51.448;6.604;2023-07-31T10:48:21;5.57;;;3.65;;
55220;SDS011;41089;51.448;6.604;2023-07-31T10:54:21;4.95;;;3.45;;
55220;SDS011;41089;51.448;6.604;2023-07-31T11:00:28;4.20;;;3.10;;
55220;SDS011;41089;51.448;6.604;2023-07-31T11:06:29;5.70;;;3.08;;
55220;SDS011;41089;51.448;6.604;2023-07-31T11:12:30;7.78;;;3.58;;
55220;SDS011;41089;51.448;6.604;2023-07-31T11:18:31;5.90;;;3.07;;
55220;SDS011;41089;51.448;6.604;2023-07-31T11:24:32;5.47;;;3.10;;
55220;SDS011;41089;51.448;6.604;2023-07-31T11:30:33;5.20;;;3.70;;
55220;SDS011;41089;51.448;6.604;2023-07-31T11:36:34;7.93;;;3.70;;
55220;SDS011;41089;51.448;6.604;2023-07-31T11:42:34;4.18;;;3.08;;
55220;SDS011;41089;51.448;6.604;2023-07-31T11:48:35;5.43;;;3.20;;
55220;SDS011;41089;51.448;6.604;2023-07-31T11:54:37;4.80;;;3.30;;
55220;SDS011;41089;51.448;6.604;2023-07-31T12:00:40;5.30;;;3.20;;
55220;SDS011;41089;51.448;6.604;2023-07-31T12:06:40;4.78;;;3.17;;
55220;SDS011;41089;51.448;6.604;2023-07-31T12:12:41;4.10;;;3.47;;
55220;SDS011;41089;51.448;6.604;2023-07-31T12:18:42;4.55;;;3.08;;
55220;SDS011;41089;51.448;6.604;2023-07-31T12:24:43;5.27;;;2.90;;
55220;SDS011;41089;51.448;6.604;2023-07-31T12:30:44;3.60;;;2.95;;
55220;SDS011;41089;51.448;6.604;2023-07-31T12:36:45;3.60;;;2.53;;
55220;SDS011;41089;51.448;6.604;2023-07-31T12:42:45;3.53;;;2.60;;
55220;SDS011;41089;51.448;6.604;2023-07-31T12:48:47;5.35;;;3.35;;
55220;SDS011;41089;51.448;6.604;2023-07-31T12:54:47;4.53;;;2.85;;
55220;SDS011;41089;51.448;6.604;2023-07-31T13:00:48;4.50;;;2.70;;
55220;SDS011;41089;51.448;6.604;2023-07-31T13:06:48;5.60;;;3.20;;
55220;SDS011;41089;51.448;6.604;2023-07-31T13:12:48;4.78;;;2.97;;
55220;SDS011;41089;51.448;6.604;2023-07-31T13:18:49;5.27;;;3.43;;
55220;SDS011;41089;51.448;6.604;2023-07-31T13:24:49;4.00;;;3.60;;
55220;SDS011;41089;51.448;6.604;2023-07-31T13:30:49;6.07;;;3.20;;
55220;SDS011;41089;51.448;6.604;2023-07-31T13:36:50;4.53;;;3.65;;
55220;SDS011;41089;51.448;6.604;2023-07-31T13:42:50;6.68;;;3.83;;
55220;SDS011;41089;51.448;6.604;2023-07-31T13:48:51;5.18;;;3.90;;
55220;SDS011;41089;51.448;6.604;2023-07-31T13:54:54;5.30;;;4.15;;
55220;SDS011;41089;51.448;6.604;2023-07-31T14:00:55;6.47;;;4.10;;
55220;SDS011;41089;51.448;6.604;2023-07-31T14:06:55;4.25;;;3.75;;
55220;SDS011;41089;51.448;6.604;2023-07-31T14:12:56;9.70;;;4.30;;
55220;SDS011;41089;51.448;6.604;2023-07-31T14:18:56;5.80;;;3.83;;
55220;SDS011;41089;51.448;6.604;2023-07-31T14:24:58;5.75;;;3.90;;
55220;SDS011;41089;51.448;6.604;2023-07-31T14:30:59;5.33;;;4.17;;
55220;SDS011;41089;51.448;6.604;2023-07-31T14:36:59;7.40;;;4.43;;
55220;SDS011;41089;51.448;6.604;2023-07-31T14:43:00;6.10;;;4.30;;
55220;SDS011;41089;51.448;6.604;2023-07-31T14:49:00;5.30;;;3.97;;
55220;SDS011;41089;51.448;6.604;2023-07-31T14:55:00;9.25;;;4.30;;
55220;SDS011;41089;51.448;6.604;2023-07-31T15:01:01;10.73;;;4.22;;
55220;SDS011;41089;51.448;6.604;2023-07-31T15:07:01;5.25;;;4.32;;
55220;SDS011;41089;51.448;6.604;2023-07-31T15:13:02;6.88;;;3.92;;
55220;SDS011;41089;51.448;6.604;2023-07-31T15:19:02;6.68;;;4.00;;
55220;SDS011;41089;51.448;6.604;2023-07-31T15:25:03;7.95;;;4.53;;
55220;SDS011;41089;51.448;6.604;2023-07-31T15:31:03;7.95;;;4.30;;
55220;SDS011;41089;51.448;6.604;2023-07-31T15:37:04;5.75;;;3.80;;
55220;SDS011;41089;51.448;6.604;2023-07-31T15:43:04;6.17;;;4.10;;
55220;SDS011;41089;51.448;6.604;2023-07-31T15:49:04;9.17;;;4.77;;
55220;SDS011;41089;51.448;6.604;2023-07-31T15:55:05;7.30;;;4.73;;
55220;SDS011;41089;51.448;6.604;2023-07-31T16:01:05;6.93;;;5.13;;
55220;SDS011;41089;51.448;6.604;2023-07-31T16:07:06;7.95;;;4.43;;
55220;SDS011;41089;51.448;6.604;2023-07-31T16:13:06;10.40;;;5.03;;
55220;SDS011;41089;51.448;6.604;2023-07-31T16:19:07;8.57;;;5.32;;
55220;SDS011;41089;51.448;6.604;2023-07-31T16:25:11;7.82;;;4.40;;
55220;SDS011;41089;51.448;6.604;2023-07-31T16:31:12;7.30;;;4.38;;
55220;SDS011;41089;51.448;6.604;2023-07-31T16:37:12;7.40;;;4.30;;
55220;SDS011;41089;51.448;6.604;2023-07-31T16:43:13;5.88;;;4.40;;
55220;SDS011;41089;51.448;6.604;2023-07-31T16:49:13;10.77;;;9.25;;
55220;SDS011;41089;51.448;6.604;2023-07-31T16:55:13;11.77;;;8.50;;
55220;SDS011;41089;51.448;6.604;2023-07-31T17:01:14;8.40;;;5.00;;
55220;SDS011;41089;51.448;6.604;2023-07-31T17:07:14;5.55;;;3.03;;
55220;SDS011;41089;51.448;6.604;2023-07-31T17:13:15;6.72;;;4.22;;
55220;SDS011;41089;51.448;6.604;2023-07-31T17:19:16;5.05;;;3.97;;
55220;SDS011;41089;51.448;6.604;2023-07-31T17:25:17;4.67;;;3.43;;
55220;SDS011;41089;51.448;6.604;2023-07-31T17:31:20;3.38;;;2.72;;
55220;SDS011;41089;51.448;6.604;2023-07-31T17:37:21;6.03;;;2.95;;
55220;SDS011;41089;51.448;6.604;2023-07-31T17:43:22;5.57;;;3.88;;
55220;SDS011;41089;51.448;6.604;2023-07-31T17:49:22;5.97;;;3.10;;
55220;SDS011;41089;51.448;6.604;2023-07-31T17:55:22;6.03;;;3.20;;
55220;SDS011;41089;51.448;6.604;2023-07-31T18:01:23;4.28;;;3.45;;
55220;SDS011;41089;51.448;6.604;2023-07-31T18:07:23;5.05;;;3.53;;
55220;SDS011;41089;51.448;6.604;2023-07-31T18:13:24;4.45;;;2.83;;
55220;SDS011;41089;51.448;6.604;2023-07-31T18:19:24;4.07;;;2.43;;
55220;SDS011;41089;51.448;6.604;2023-07-31T18:25:24;2.78;;;2.40;;
55220;SDS011;41089;51.448;6.604;2023-07-31T18:31:25;3.83;;;2.33;;
55220;SDS011;41089;51.448;6.604;2023-07-31T18:37:27;4.57;;;2.17;;
55220;SDS011;41089;51.448;6.604;2023-07-31T18:43:28;3.30;;;1.85;;
55220;SDS011;41089;51.448;6.604;2023-07-31T18:49:28;5.78;;;2.30;;
55220;SDS011;41089;51.448;6.604;2023-07-31T18:55:29;4.10;;;2.30;;
55220;SDS011;41089;51.448;6.604;2023-07-31T19:01:29;4.20;;;2.30;;
55220;SDS011;41089;51.448;6.604;2023-07-31T19:07:30;3.03;;;1.97;;
55220;SDS011;41089;51.448;6.604;2023-07-31T19:13:31;4.80;;;1.85;;
55220;SDS011;41089;51.448;6.604;2023-07-31T19:19:32;3.55;;;1.85;;
55220;SDS011;41089;51.448;6.604;2023-07-31T19:25:34;6.00;;;1.58;;
55220;SDS011;41089;51.448;6.604;2023-07-31T19:31:35;4.72;;;1.75;;
55220;SDS011;41089;51.448;6.604;2023-07-31T19:37:35;3.53;;;1.70;;
55220;SDS011;41089;51.448;6.604;2023-07-31T19:43:35;1.17;;;1.17;;
55220;SDS011;41089;51.448;6.604;2023-07-31T19:49:36;2.97;;;1.27;;
55220;SDS011;41089;51.448;6.604;2023-07-31T19:55:36;1.83;;;1.63;;
55220;SDS011;41089;51.448;6.604;2023-07-31T20:01:36;2.45;;;1.30;;
55220;SDS011;41089;51.448;6.604;2023-07-31T20:07:37;4.73;;;1.83;;
55220;SDS011;41089;51.448;6.604;2023-07-31T20:13:37;1.17;;;1.10;;
55220;SDS011;41089;51.448;6.604;2023-07-31T20:19:38;1.75;;;1.65;;
55220;SDS011;41089;51.448;6.604;2023-07-31T20:25:38;5.00;;;1.67;;
55220;SDS011;41089;51.448;6.604;2023-07-31T20:31:38;4.53;;;1.20;;
55220;SDS011;41089;51.448;6.604;2023-07-31T20:37:40;2.35;;;1.20;;
55220;SDS011;41089;51.448;6.604;2023-07-31T20:43:40;2.87;;;1.23;;
55220;SDS011;41089;51.448;6.604;2023-07-31T20:49:41;2.10;;;1.35;;
55220;SDS011;41089;51.448;6.604;2023-07-31T20:55:41;1.40;;;1.30;;
55220;SDS011;41089;51.448;6.604;2023-07-31T21:01:42;2.47;;;1.50;;
55220;SDS011;41089;51.448;6.604;2023-07-31T21:07:42;2.03;;;1.30;;
55220;SDS011;41089;51.448;6.604;2023-07-31T21:13:43;1.35;;;1.08;;
55220;SDS011;41089;51.448;6.604;2023-07-31T21:19:43;3.53;;;1.75;;
55220;SDS011;41089;51.448;6.604;2023-07-31T21:25:44;2.00;;;1.40;;
55220;SDS011;41089;51.448;6.604;2023-07-31T21:31:45;4.45;;;1.80;;
55220;SDS011;41089;51.448;6.604;2023-07-31T21:37:45;1.70;;;1.60;;
55220;SDS011;41089;51.448;6.604;2023-07-31T21:43:46;1.23;;;1.20;;
55220;SDS011;41089;51.448;6.604;2023-07-31T21:49:46;1.65;;;1.52;;
55220;SDS011;41089;51.448;6.604;2023-07-31T21:55:46;1.67;;;1.30;;
55220;SDS011;41089;51.448;6.604;2023-07-31T22:01:47;2.35;;;1.50;;
55220;SDS011;41089;51.448;6.604;2023-07-31T22:07:47;1.60;;;1.23;;
55220;SDS011;41089;51.448;6.604;2023-07-31T22:13:47;2.73;;;1.47;;
55220;SDS011;41089;51.448;6.604;2023-07-31T22:19:48;1.45;;;1.35;;
55220;SDS011;41089;51.448;6.604;2023-07-31T22:25:48;1.40;;;1.30;;
55220;SDS011;41089;51.448;6.604;2023-07-31T22:31:48;4.87;;;2.20;;
55220;SDS011;41089;51.448;6.604;2023-07-31T22:37:49;2.22;;;1.60;;
55220;SDS011;41089;51.448;6.604;2023-07-31T22:43:50;3.63;;;1.57;;
55220;SDS011;41089;51.448;6.604;2023-07-31T22:49:50;4.65;;;1.50;;
55220;SDS011;41089;51.448;6.604;2023-07-31T22:55:51;3.70;;;1.95;;
55220;SDS011;41089;51.448;6.604;2023-07-31T23:01:51;1.60;;;1.25;;
55220;SDS011;41089;51.448;6.604;2023-07-31T23:07:52;6.60;;;1.67;;
55220;SDS011;41089;51.448;6.604;2023-07-31T23:13:52;1.40;;;1.30;;
55220;SDS011;41089;51.448;6.604;2023-07-31T23:19:52;2.25;;;1.98;;
55220;SDS011;41089;51.448;6.604;2023-07-31T23:25:53;2.20;;;2.00;;
55220;SDS011;41089;51.448;6.604;2023-07-31T23:31:53;0.85;;;0.85;;
55220;SDS011;41089;51.448;6.604;2023-07-31T23:37:54;1.15;;;1.05;;
55220;SDS011;41089;51.448;6.604;2023-07-31T23:43:54;0.80;;;0.80;;
55220;SDS011;41089;51.448;6.604;2023-07-31T23:49:54;2.38;;;1.15;;
55220;SDS011;41089;51.448;6.604;2023-07-31T23:55:55;1.02;;;0.98;;
